sensor_id;sensor_type;location;lat;lon;timestamp;P1;durP1;ratioP1;P2;durP2;ratioP2
9094;SDS011;4583;49.796;9.902;2023-04-25T00:05:41;4.53;;;3.80;;
9094;SDS011;4583;49.796;9.902;2023-04-25T00:15:43;5.10;;;3.60;;
9094;SDS011;4583;49.796;9.902;2023-04-25T00:25:45;3.90;;;3.30;;
9094;SDS011;4583;49.796;9.902;2023-04-25T00:38:45;3.83;;;3.43;;
9094;SDS011;4583;49.796;9.902;2023-04-25T00:48:47;5.03;;;3.43;;
9094;SDS011;4583;49.796;9.902;2023-04-25T00:58:49;5.13;;;3.30;;
9094;SDS011;4583;49.796;9.902;2023-04-25T01:08:53;4.23;;;3.20;;
9094;SDS011;4583;49.796;9.902;2023-04-25T01:18:55;4.97;;;3.97;;
9094;SDS011;4583;49.796;9.902;2023-04-25T01:28:57;5.53;;;3.60;;
9094;SDS011;4583;49.796;9.902;2023-04-25T01:38:59;3.00;;;2.73;;
9094;SDS011;4583;49.796;9.902;2023-04-25T01:49:02;3.10;;;2.80;;
9094;SDS011;4583;49.796;9.902;2023-04-25T01:59:04;2.67;;;2.47;;
9094;SDS011;4583;49.796;9.902;2023-04-25T02:09:06;3.40;;;2.53;;
9094;SDS011;4583;49.796;9.902;2023-04-25T02:19:08;2.93;;;2.50;;
9094;SDS011;4583;49.796;9.902;2023-04-25T02:29:11;4.83;;;2.40;;
9094;SDS011;4583;49.796;9.902;2023-04-25T02:39:12;2.17;;;1.80;;
9094;SDS011;4583;49.796;9.902;2023-04-25T02:49:14;2.03;;;1.80;;
9094;SDS011;4583;49.796;9.902;2023-04-25T02:59:16;1.70;;;1.60;;
9094;SDS011;4583;49.796;9.902;2023-04-25T03:09:18;2.20;;;2.00;;
9094;SDS011;4583;49.796;9.902;2023-04-25T03:19:20;2.30;;;2.10;;
9094;SDS011;4583;49.796;9.902;2023-04-25T03:29:21;3.93;;;2.60;;
9094;SDS011;4583;49.796;9.902;2023-04-25T03:39:25;3.77;;;3.07;;
9094;SDS011;4583;49.796;9.902;2023-04-25T03:49:27;5.30;;;3.63;;
9094;SDS011;4583;49.796;9.902;2023-04-25T03:59:29;4.77;;;3.80;;
9094;SDS011;4583;49.796;9.902;2023-04-25T04:09:30;4.90;;;4.00;;
9094;SDS011;4583;49.796;9.902;2023-04-25T04:19:32;6.00;;;4.23;;
9094;SDS011;4583;49.796;9.902;2023-04-25T04:29:34;6.77;;;4.50;;
9094;SDS011;4583;49.796;9.902;2023-04-25T04:39:36;6.00;;;4.70;;
9094;SDS011;4583;49.796;9.902;2023-04-25T04:49:37;5.40;;;4.63;;
9094;SDS011;4583;49.796;9.902;2023-04-25T04:59:39;6.43;;;4.77;;
9094;SDS011;4583;49.796;9.902;2023-04-25T05:09:41;11.00;;;7.63;;
9094;SDS011;4583;49.796;9.902;2023-04-25T05:19:43;7.60;;;5.20;;
9094;SDS011;4583;49.796;9.902;2023-04-25T05:29:45;7.33;;;5.20;;
9094;SDS011;4583;49.796;9.902;2023-04-25T05:39:46;11.70;;;5.90;;
9094;SDS011;4583;49.796;9.902;2023-04-25T05:49:48;6.57;;;5.47;;
9094;SDS011;4583;49.796;9.902;2023-04-25T05:59:50;8.07;;;5.50;;
9094;SDS011;4583;49.796;9.902;2023-04-25T06:09:52;7.17;;;5.53;;
9094;SDS011;4583;49.796;9.902;2023-04-25T06:19:54;10.57;;;6.80;;
9094;SDS011;4583;49.796;9.902;2023-04-25T06:29:56;8.47;;;6.20;;
9094;SDS011;4583;49.796;9.902;2023-04-25T06:39:57;12.13;;;6.50;;
9094;SDS011;4583;49.796;9.902;2023-04-25T06:49:59;9.83;;;5.90;;
9094;SDS011;4583;49.796;9.902;2023-04-25T07:00:01;7.73;;;5.63;;
9094;SDS011;4583;49.796;9.902;2023-04-25T07:10:06;10.60;;;6.37;;
9094;SDS011;4583;49.796;9.902;2023-04-25T07:20:08;10.07;;;6.80;;
9094;SDS011;4583;49.796;9.902;2023-04-25T07:30:11;12.03;;;6.33;;
9094;SDS011;4583;49.796;9.902;2023-04-25T07:40:13;12.60;;;5.53;;
9094;SDS011;4583;49.796;9.902;2023-04-25T07:50:17;7.90;;;4.20;;
9094;SDS011;4583;49.796;9.902;2023-04-25T08:00:19;6.47;;;4.43;;
9094;SDS011;4583;49.796;9.902;2023-04-25T08:10:21;7.97;;;3.87;;
9094;SDS011;4583;49.796;9.902;2023-04-25T08:20:24;10.87;;;3.30;;
9094;SDS011;4583;49.796;9.902;2023-04-25T08:30:26;4.80;;;3.37;;
9094;SDS011;4583;49.796;9.902;2023-04-25T08:40:28;5.30;;;2.50;;
9094;SDS011;4583;49.796;9.902;2023-04-25T08:50:31;7.50;;;5.40;;
9094;SDS011;4583;49.796;9.902;2023-04-25T09:00:33;10.27;;;2.50;;
9094;SDS011;4583;49.796;9.902;2023-04-25T09:10:35;3.20;;;2.23;;
9094;SDS011;4583;49.796;9.902;2023-04-25T09:20:41;6.20;;;2.30;;
9094;SDS011;4583;49.796;9.902;2023-04-25T09:31:01;4.60;;;2.37;;
9094;SDS011;4583;49.796;9.902;2023-04-25T09:41:02;3.63;;;2.40;;
9094;SDS011;4583;49.796;9.902;2023-04-25T09:51:08;4.40;;;2.40;;
9094;SDS011;4583;49.796;9.902;2023-04-25T10:01:11;3.60;;;2.50;;
9094;SDS011;4583;49.796;9.902;2023-04-25T10:11:13;5.10;;;3.70;;
9094;SDS011;4583;49.796;9.902;2023-04-25T10:21:17;5.67;;;2.60;;
9094;SDS011;4583;49.796;9.902;2023-04-25T10:31:19;3.83;;;2.60;;
9094;SDS011;4583;49.796;9.902;2023-04-25T10:41:21;3.67;;;2.53;;
9094;SDS011;4583;49.796;9.902;2023-04-25T10:51:24;4.10;;;2.50;;
9094;SDS011;4583;49.796;9.902;2023-04-25T11:01:36;12.03;;;6.80;;
9094;SDS011;4583;49.796;9.902;2023-04-25T11:11:39;3.53;;;2.47;;
9094;SDS011;4583;49.796;9.902;2023-04-25T11:21:41;8.13;;;2.43;;
9094;SDS011;4583;49.796;9.902;2023-04-25T11:31:43;6.97;;;2.83;;
9094;SDS011;4583;49.796;9.902;2023-04-25T11:41:47;4.27;;;2.73;;
9094;SDS011;4583;49.796;9.902;2023-04-25T11:51:48;5.13;;;2.50;;
9094;SDS011;4583;49.796;9.902;2023-04-25T12:01:50;8.97;;;2.57;;
9094;SDS011;4583;49.796;9.902;2023-04-25T12:11:55;4.23;;;2.70;;
9094;SDS011;4583;49.796;9.902;2023-04-25T12:22:00;8.03;;;2.73;;
9094;SDS011;4583;49.796;9.902;2023-04-25T12:32:02;4.27;;;3.10;;
9094;SDS011;4583;49.796;9.902;2023-04-25T12:42:04;5.50;;;3.27;;
9094;SDS011;4583;49.796;9.902;2023-04-25T12:52:09;7.20;;;3.03;;
9094;SDS011;4583;49.796;9.902;2023-04-25T13:02:11;8.67;;;3.43;;
9094;SDS011;4583;49.796;9.902;2023-04-25T13:12:13;6.27;;;4.00;;
9094;SDS011;4583;49.796;9.902;2023-04-25T13:22:15;5.63;;;3.13;;
9094;SDS011;4583;49.796;9.902;2023-04-25T13:32:18;5.07;;;3.63;;
9094;SDS011;4583;49.796;9.902;2023-04-25T13:42:19;7.97;;;3.20;;
9094;SDS011;4583;49.796;9.902;2023-04-25T13:52:21;6.27;;;3.03;;
9094;SDS011;4583;49.796;9.902;2023-04-25T14:02:25;3.17;;;2.80;;
9094;SDS011;4583;49.796;9.902;2023-04-25T14:12:27;4.73;;;2.70;;
9094;SDS011;4583;49.796;9.902;2023-04-25T14:22:28;4.90;;;2.90;;
9094;SDS011;4583;49.796;9.902;2023-04-25T14:32:30;11.57;;;2.67;;
9094;SDS011;4583;49.796;9.902;2023-04-25T14:42:33;5.90;;;3.13;;
9094;SDS011;4583;49.796;9.902;2023-04-25T14:52:35;10.63;;;2.77;;
9094;SDS011;4583;49.796;9.902;2023-04-25T15:02:37;5.53;;;2.40;;
9094;SDS011;4583;49.796;9.902;2023-04-25T15:12:39;5.20;;;2.90;;
9094;SDS011;4583;49.796;9.902;2023-04-25T15:22:42;5.30;;;2.80;;
9094;SDS011;4583;49.796;9.902;2023-04-25T15:32:44;4.07;;;2.33;;
9094;SDS011;4583;49.796;9.902;2023-04-25T15:42:48;4.73;;;2.50;;
9094;SDS011;4583;49.796;9.902;2023-04-25T15:52:54;5.83;;;2.40;;
9094;SDS011;4583;49.796;9.902;2023-04-25T16:02:55;5.97;;;2.50;;
9094;SDS011;4583;49.796;9.902;2023-04-25T16:12:57;4.17;;;2.30;;
9094;SDS011;4583;49.796;9.902;2023-04-25T16:23:00;7.67;;;2.77;;
9094;SDS011;4583;49.796;9.902;2023-04-25T16:33:01;7.23;;;2.97;;
9094;SDS011;4583;49.796;9.902;2023-04-25T16:43:03;6.73;;;2.80;;
9094;SDS011;4583;49.796;9.902;2023-04-25T16:53:05;7.03;;;2.87;;
9094;SDS011;4583;49.796;9.902;2023-04-25T17:03:07;4.63;;;2.80;;
9094;SDS011;4583;49.796;9.902;2023-04-25T17:13:09;5.33;;;2.50;;
9094;SDS011;4583;49.796;9.902;2023-04-25T17:23:11;8.00;;;3.07;;
9094;SDS011;4583;49.796;9.902;2023-04-25T17:33:12;6.37;;;3.03;;
9094;SDS011;4583;49.796;9.902;2023-04-25T17:43:14;4.20;;;2.70;;
9094;SDS011;4583;49.796;9.902;2023-04-25T17:53:16;6.23;;;2.77;;
9094;SDS011;4583;49.796;9.902;2023-04-25T18:03:18;8.83;;;3.47;;
9094;SDS011;4583;49.796;9.902;2023-04-25T18:13:20;5.87;;;3.20;;
9094;SDS011;4583;49.796;9.902;2023-04-25T18:23:21;5.37;;;2.83;;
9094;SDS011;4583;49.796;9.902;2023-04-25T18:33:23;5.13;;;3.13;;
9094;SDS011;4583;49.796;9.902;2023-04-25T18:43:25;9.30;;;3.37;;
9094;SDS011;4583;49.796;9.902;2023-04-25T18:53:27;11.03;;;3.70;;
9094;SDS011;4583;49.796;9.902;2023-04-25T19:03:29;7.97;;;3.27;;
9094;SDS011;4583;49.796;9.902;2023-04-25T19:13:31;12.30;;;7.23;;
9094;SDS011;4583;49.796;9.902;2023-04-25T19:23:35;9.47;;;3.67;;
9094;SDS011;4583;49.796;9.902;2023-04-25T19:33:36;8.20;;;3.07;;
9094;SDS011;4583;49.796;9.902;2023-04-25T19:43:38;8.03;;;3.07;;
9094;SDS011;4583;49.796;9.902;2023-04-25T19:53:40;9.67;;;3.80;;
9094;SDS011;4583;49.796;9.902;2023-04-25T20:03:42;6.27;;;3.43;;
9094;SDS011;4583;49.796;9.902;2023-04-25T20:13:44;9.30;;;3.67;;
9094;SDS011;4583;49.796;9.902;2023-04-25T20:23:46;10.83;;;4.50;;
9094;SDS011;4583;49.796;9.902;2023-04-25T20:33:47;15.50;;;5.17;;
9094;SDS011;4583;49.796;9.902;2023-04-25T20:49:50;6.53;;;3.10;;
9094;SDS011;4583;49.796;9.902;2023-04-25T20:59:52;9.07;;;3.93;;
9094;SDS011;4583;49.796;9.902;2023-04-25T21:09:54;9.97;;;5.13;;
9094;SDS011;4583;49.796;9.902;2023-04-25T21:19:55;9.00;;;4.17;;
9094;SDS011;4583;49.796;9.902;2023-04-25T21:29:57;9.40;;;4.10;;
9094;SDS011;4583;49.796;9.902;2023-04-25T21:39:59;10.80;;;4.83;;
9094;SDS011;4583;49.796;9.902;2023-04-25T21:50:01;7.43;;;3.77;;
9094;SDS011;4583;49.796;9.902;2023-04-25T22:00:03;7.17;;;3.80;;
9094;SDS011;4583;49.796;9.902;2023-04-25T22:10:06;10.73;;;3.80;;
9094;SDS011;4583;49.796;9.902;2023-04-25T22:20:08;9.33;;;3.87;;
9094;SDS011;4583;49.796;9.902;2023-04-25T22:30:14;7.43;;;3.80;;
9094;SDS011;4583;49.796;9.902;2023-04-25T22:40:16;10.87;;;4.00;;
9094;SDS011;4583;49.796;9.902;2023-04-25T22:50:19;8.23;;;3.97;;
9094;SDS011;4583;49.796;9.902;2023-04-25T23:00:21;5.87;;;3.70;;
9094;SDS011;4583;49.796;9.902;2023-04-25T23:10:26;13.47;;;5.03;;
9094;SDS011;4583;49.796;9.902;2023-04-25T23:20:28;11.50;;;4.43;;
9094;SDS011;4583;49.796;9.902;2023-04-25T23:30:32;16.43;;;4.80;;
9094;SDS011;4583;49.796;9.902;2023-04-25T23:40:33;12.67;;;4.93;;
9094;SDS011;4583;49.796;9.902;2023-04-25T23:50:36;9.13;;;4.33;;
